Flight Track Log - Related Links

Times and Time Zones

All times are in EST time to prevent confusion due to time zone crossing. See the RPA3228 flight status page for this flight to view local times or setup timezone preferences in your user account.

Time Position Orientation Groundspeed Altitude Reporting Facility
EST Latitude Longitude Course Direction KTS MPH feet Rate Location/Type
Mon 07:05:04 AM 36.1333 -86.6833 68° East 159 183 1,300  Level Nashville TRACON
Mon 07:06:10 AM 36.1667 -86.7333 310° West 225 259 3,600 2,818 Climbing Nashville TRACON
Mon 07:07:00 AM 36.2387 -86.3351 80° East  Level Estimated
Mon 07:07:16 AM 36.2167 -86.6667 47° Northeast 293 337 7,500  Level Nashville TRACON
Mon 07:08:00 AM 36.2766 -86.2205 64° Northeast  Level Estimated
Mon 07:08:35 AM 36.2056 -86.5244 95° East 327 376 11,500  Level Memphis Center
Mon 07:09:00 AM 36.3143 -86.1058 68° East  Level Estimated
Mon 07:09:35 AM 36.2044 -86.4192 91° East 337 388 13,900  Level Memphis Center
Mon 07:10:00 AM 36.3520 -85.9910 68° East  Level Estimated
Mon 07:10:35 AM 36.2022 -86.2881 91° East 358 412 16,700  Level Memphis Center
Mon 07:11:35 AM 36.1997 -86.1519 91° East 382 440 19,000 2,176 Climbing Memphis Center
Mon 07:13:37 AM 36.2831 -85.8847 69° East 436 502 23,300 1,934 Climbing Indianapolis Center
Mon 07:14:38 AM 36.3458 -85.7458 61° Northeast 458 527 24,900 1,721 Climbing Indianapolis Center
Mon 07:15:39 AM 36.4139 -85.6050 59° Northeast 469 540 26,800 1,918 Climbing Indianapolis Center
Mon 07:16:40 AM 36.4964 -85.4294 60° Northeast 484 557 28,800 1,574 Climbing Indianapolis Center
Mon 07:17:41 AM 36.5667 -85.2803 60° Northeast 492 566 30,000 1,512 Climbing Indianapolis Center
Mon 07:18:43 AM 36.6325 -85.1258 62° Northeast 500 575 31,900 1,463 Climbing Indianapolis Center
Mon 07:19:44 AM 36.6806 -84.9639 70° East 495 570 33,000 541 Climbing Indianapolis Center
Mon 07:20:45 AM 36.7297 -84.8033 69° East 493 567 33,000  Level Indianapolis Center
Mon 07:21:46 AM 36.7781 -84.6428 69° East 492 566 33,000  Level Indianapolis Center
Mon 07:22:47 AM 36.8256 -84.4906 69° East 489 563 33,000  Level Indianapolis Center
Mon 07:23:48 AM 36.8731 -84.3300 70° East 492 566 33,000  Level Indianapolis Center
Mon 07:24:49 AM 36.9219 -84.1700 69° East 493 567 33,000  Level Indianapolis Center
Mon 07:25:50 AM 36.9675 -84.0106 70° East 488 562 33,000  Level Indianapolis Center
Mon 07:26:51 AM 37.0164 -83.8503 69° East 491 565 33,000  Level Indianapolis Center
Mon 07:27:53 AM 37.0719 -83.6625 70° East 493 567 33,000  Level Indianapolis Center
Mon 07:28:54 AM 37.1192 -83.5011 70° East 495 570 33,000  Level Indianapolis Center
Mon 07:29:55 AM 37.1669 -83.3392 70° East 498 573 33,000  Level Indianapolis Center
Mon 07:30:57 AM 37.2139 -83.1764 70° East 495 570 33,000  Level Indianapolis Center
Mon 07:31:58 AM 37.2592 -83.0169 70° East 484 557 33,000  Level Indianapolis Center
Mon 07:32:59 AM 37.3039 -82.8586 70° East 480 552 33,000  Level Indianapolis Center
Mon 07:34:01 AM 37.3492 -82.7014 70° East 477 549 33,000  Level Indianapolis Center
Mon 07:35:02 AM 37.3936 -82.5439 70° East 475 547 33,000  Level Indianapolis Center
Mon 07:36:04 AM 37.4378 -82.3856 71° East 477 549 33,000  Level Indianapolis Center
Mon 07:37:05 AM 37.4828 -82.2256 70° East 482 555 33,000  Level Indianapolis Center
Mon 07:38:07 AM 37.5281 -82.0644 70° East 486 559 33,000  Level Indianapolis Center
Mon 07:39:08 AM 37.5783 -81.8786 71° East 482 555 33,000  Level Indianapolis Center
Mon 07:40:10 AM 37.6211 -81.7183 71° East 483 556 33,000  Level Indianapolis Center
Mon 07:41:11 AM 37.6644 -81.5606 71° East 477 549 33,000  Level Indianapolis Center
Mon 07:42:13 AM 37.7056 -81.4067 71° East 476 548 33,000  Level Indianapolis Center
Mon 07:43:14 AM 37.7469 -81.2517 71° East 477 549 33,000  Level Indianapolis Center
Mon 07:44:16 AM 37.7911 -81.0975 70° East 479 551 33,000  Level Indianapolis Center
Mon 07:45:17 AM 37.8453 -80.9414 66° East 471 542 33,000  Level Indianapolis Center
Mon 07:46:19 AM 37.8986 -80.7881 66° East 473 544 33,000  Level Indianapolis Center
Mon 07:47:20 AM 37.9636 -80.6061 66° East 473 544 33,000  Level Indianapolis Center
Mon 07:47:54 AM 37.9922 -80.5322 64° Northeast 467 537 33,000  Level Washington Center
Mon 07:48:52 AM 38.0464 -80.3831 65° Northeast 467 537 33,000  Level Washington Center
Mon 07:49:52 AM 38.0936 -80.2436 67° East 475 547 33,000  Level Washington Center
Mon 07:50:53 AM 38.1494 -80.0911 65° Northeast 470 541 33,000  Level Washington Center
Mon 07:51:54 AM 38.2028 -79.9411 66° East 470 541 33,000  Level Washington Center
Mon 07:52:54 AM 38.2564 -79.7883 66° East 470 541 33,000  Level Washington Center
Mon 07:53:52 AM 38.3117 -79.6353 65° Northeast 475 547 33,000  Level Washington Center
Mon 07:54:52 AM 38.3647 -79.4792 67° East 475 547 33,000 -1,200 Level Washington Center
Mon 07:55:52 AM 38.4203 -79.3072 68° East 475 547 30,600 -2,430 Descending Washington Center
Mon 07:56:53 AM 38.4542 -79.1472 75° East 464 534 28,100 -1,770 Descending Washington Center
Mon 07:57:54 AM 38.4819 -78.9867 77° East 457 526 27,000 -1,190 Descending Washington Center
Mon 07:58:54 AM 38.5050 -78.8258 80° East 457 526 25,700 -1,846 Descending Washington Center
Mon 07:59:51 AM 38.5281 -78.6703 79° East 457 526 23,400 -1,866 Descending Washington Center
Mon 08:00:53 AM 38.5525 -78.5225 78° East 444 511 22,000 -1,171 Descending Washington Center
Mon 08:01:54 AM 38.5747 -78.3800 79° East 422 486 21,000 -1,361 Descending Washington Center
Mon 08:02:52 AM 38.6111 -78.2433 71° East 411 473 19,300 -1,576 Descending Washington Center
Mon 08:03:52 AM 38.6594 -78.1228 63° Northeast 392 451 17,900 -1,587 Descending Washington Center
Mon 08:04:53 AM 38.7058 -78.0047 63° Northeast 375 432 16,100 -1,835 Descending Washington Center
Mon 08:05:53 AM 38.7497 -77.8889 64° Northeast 369 425 14,200 -1,835 Descending Washington Center
Mon 08:06:54 AM 38.7892 -77.7783 65° Northeast 351 404 12,400 -1,765 Descending Washington Center
Mon 08:07:52 AM 38.8286 -77.6808 63° Northeast 320 368 10,700 -1,424 Descending Washington Center
Mon 08:08:52 AM 38.8614 -77.5964 63° Northeast 291 335 9,600 -1,050 Descending Washington Center
Mon 08:09:52 AM 38.8919 -77.5011 68° East 286 329 8,600 -1,217 Descending Washington Center
Mon 08:11:10 AM 38.8833 -77.3667 95° East 284 327 6,800 -1,130 Descending Potomac TRACON
Mon 08:12:10 AM 38.8333 -77.2833 128° Southeast 275 316 6,000 -800 Descending Potomac TRACON
Mon 08:13:10 AM 38.8000 -77.2000 117° Southeast 272 313 5,200 -1,100 Descending Potomac TRACON
Mon 08:14:10 AM 38.7667 -77.1333 123° Southeast 242 278 3,800 -1,450 Descending Potomac TRACON
Mon 08:15:10 AM 38.7500 -77.0500 104° East 173 199 2,300 -1,148 Descending Potomac TRACON
Mon 08:16:05 AM 38.7833 -77.0333 21° North 138 159 1,600 -835 Descending Potomac TRACON
Mon 08:17:05 AM 38.8167 -77.0333 360° North 116 133 700 -900 Descending Potomac TRACON

Login

Don't have an account? Register now (free) for customized features, flight alerts, and more!